createdAt,value
2023-02-12T00:02:12.681Z,25.15
2023-02-12T00:07:14.283Z,29.35
2023-02-12T00:12:16.636Z,31.50
2023-02-12T00:17:18.084Z,27.42
2023-02-12T00:22:19.546Z,27.70
2023-02-12T00:27:21.771Z,23.40
2023-02-12T00:32:23.236Z,28.30
2023-02-12T00:37:24.781Z,28.50
2023-02-12T00:42:26.227Z,26.60
2023-02-12T00:47:27.647Z,27.40
2023-02-12T00:52:29.091Z,24.17
2023-02-12T00:57:30.563Z,21.58
2023-02-12T01:02:31.994Z,28.05
2023-02-12T01:07:33.569Z,24.17
2023-02-12T01:12:35.207Z,26.05
2023-02-12T01:17:37.405Z,28.15
2023-02-12T01:22:39.249Z,24.40
2023-02-12T01:27:41.031Z,24.55
2023-02-12T01:32:42.526Z,21.33
2023-02-12T01:37:43.934Z,24.17
2023-02-12T01:42:45.439Z,23.58
2023-02-12T01:47:46.891Z,24.08
2023-02-12T01:52:54.218Z,22.45
2023-02-12T01:57:55.987Z,23.33
2023-02-12T02:02:59.664Z,31.38
2023-02-12T02:08:01.148Z,31.75
2023-02-12T02:13:21.570Z,32.85
2023-02-12T02:18:32.197Z,33.45
2023-02-12T02:23:52.249Z,34.00
2023-02-12T02:28:53.610Z,40.63
2023-02-12T02:34:01.482Z,46.70
2023-02-12T02:39:17.228Z,44.35
2023-02-12T02:44:26.241Z,35.85
2023-02-12T02:49:33.857Z,24.50
2023-02-12T02:54:56.217Z,23.17
2023-02-12T03:00:23.293Z,23.42
2023-02-12T03:05:32.848Z,19.10
2023-02-12T03:10:42.553Z,19.77
2023-02-12T03:16:01.959Z,17.90
2023-02-12T03:26:13.042Z,19.45
2023-02-12T03:31:46.406Z,22.25
2023-02-12T03:37:00.959Z,21.33
2023-02-12T03:42:18.460Z,18.20
2023-02-12T03:47:34.098Z,24.15
2023-02-12T03:52:36.001Z,26.90
2023-02-12T03:57:42.950Z,20.52
2023-02-12T04:02:45.115Z,17.98
2023-02-12T04:07:47.325Z,18.88
2023-02-12T04:13:06.459Z,18.92
2023-02-12T04:18:13.939Z,20.42
2023-02-12T04:23:48.387Z,17.17
2023-02-12T04:29:14.522Z,16.52
2023-02-12T04:34:36.892Z,24.27
2023-02-12T04:39:41.137Z,21.30
2023-02-12T04:44:43.860Z,19.02
2023-02-12T04:49:45.312Z,23.75
2023-02-12T04:54:46.761Z,17.67
2023-02-12T04:59:48.222Z,15.40
2023-02-12T05:04:50.792Z,21.60
2023-02-12T05:09:52.305Z,21.60
2023-02-12T05:14:53.766Z,17.60
2023-02-12T05:19:55.264Z,18.33
2023-02-12T05:24:56.691Z,20.35
2023-02-12T05:29:58.103Z,25.52
2023-02-12T05:34:59.547Z,18.73
2023-02-12T05:40:01.030Z,20.33
2023-02-12T05:45:02.522Z,21.20
2023-02-12T05:50:04.159Z,21.83
2023-02-12T05:55:06.062Z,22.58
2023-02-12T06:00:09.161Z,19.48
2023-02-12T06:05:10.600Z,22.40
2023-02-12T06:10:12.076Z,25.95
2023-02-12T06:15:13.572Z,21.88
2023-02-12T06:20:15.091Z,26.60
2023-02-12T06:25:16.638Z,25.48
2023-02-12T06:30:18.169Z,23.27
2023-02-12T06:35:19.597Z,19.00
2023-02-12T06:40:21.185Z,22.05
2023-02-12T06:45:22.846Z,23.30
2023-02-12T06:50:24.639Z,25.27
2023-02-12T06:55:26.091Z,25.13
2023-02-12T07:00:27.774Z,22.48
2023-02-12T07:05:29.289Z,25.15
2023-02-12T07:10:30.818Z,21.58
2023-02-12T07:15:32.375Z,22.38
2023-02-12T07:20:33.917Z,21.60
2023-02-12T07:25:35.335Z,25.52
2023-02-12T07:30:37.798Z,21.58
2023-02-12T07:35:39.242Z,22.38
2023-02-12T07:40:40.682Z,25.35
2023-02-12T07:45:42.116Z,24.92
2023-02-12T07:50:43.537Z,19.20
2023-02-12T07:55:44.936Z,24.92
2023-02-12T08:00:46.439Z,27.00
2023-02-12T08:05:47.862Z,20.92
2023-02-12T08:10:49.278Z,21.70
2023-02-12T08:15:50.708Z,23.85
2023-02-12T08:20:52.125Z,18.90
2023-02-12T08:25:53.735Z,20.08
2023-02-12T08:31:00.313Z,22.02
2023-02-12T08:36:14.629Z,20.13
2023-02-12T08:41:21.650Z,25.50
2023-02-12T08:46:26.251Z,26.88
2023-02-12T08:51:34.081Z,20.30
2023-02-12T08:56:36.086Z,22.83
2023-02-12T09:01:39.091Z,22.45
2023-02-12T09:06:40.671Z,29.58
2023-02-12T09:11:42.288Z,26.67
2023-02-12T09:16:44.781Z,23.23
2023-02-12T09:21:53.360Z,21.52
2023-02-12T09:26:56.612Z,26.35
2023-02-12T09:31:58.066Z,21.80
2023-02-12T09:36:59.507Z,25.90
2023-02-12T09:42:32.412Z,23.83
2023-02-12T09:47:43.535Z,21.77
2023-02-12T09:52:45.102Z,21.98
2023-02-12T09:57:47.080Z,22.13
2023-02-12T10:02:51.798Z,21.98
2023-02-12T10:08:24.854Z,21.17
2023-02-12T10:13:38.824Z,22.75
2023-02-12T10:18:40.203Z,26.60
2023-02-12T10:23:59.919Z,23.15
2023-02-12T10:29:22.029Z,21.58
2023-02-12T10:34:32.916Z,23.02
2023-02-12T10:39:48.795Z,19.67
2023-02-12T10:44:50.215Z,21.00
2023-02-12T10:49:59.124Z,18.23
2023-02-12T10:55:01.384Z,17.92
2023-02-12T11:00:23.074Z,16.27
2023-02-12T11:05:28.753Z,19.33
2023-02-12T11:10:38.125Z,19.23
2023-02-12T11:20:56.003Z,19.13
2023-02-12T11:26:06.490Z,15.13
2023-02-12T11:31:23.035Z,17.15
2023-02-12T11:36:27.470Z,16.10
2023-02-12T11:41:38.173Z,18.55
2023-02-12T11:46:46.054Z,11.13
2023-02-12T11:51:48.682Z,18.00
2023-02-12T11:56:50.377Z,14.75
2023-02-12T12:01:55.206Z,14.75
2023-02-12T12:07:18.589Z,13.18
2023-02-12T12:12:37.660Z,12.45
2023-02-12T12:18:41.775Z,13.77
2023-02-12T12:23:55.507Z,14.02
2023-02-12T12:29:11.060Z,10.18
2023-02-12T12:34:27.680Z,14.60
2023-02-12T12:39:35.632Z,12.77
2023-02-12T12:45:14.973Z,17.35
2023-02-12T12:50:48.594Z,16.40
2023-02-12T12:56:04.966Z,10.73
2023-02-12T13:01:43.707Z,11.23
2023-02-12T13:07:08.772Z,12.35
2023-02-12T13:12:19.125Z,13.13
2023-02-12T13:17:31.756Z,13.65
2023-02-12T13:22:53.423Z,10.38
2023-02-12T13:27:56.299Z,9.35
2023-02-12T13:33:10.910Z,10.20
2023-02-12T13:38:23.110Z,11.43
2023-02-12T13:43:39.487Z,10.05
2023-02-12T13:48:55.444Z,8.50
2023-02-12T13:54:15.045Z,9.55
2023-02-12T13:59:32.049Z,8.38
2023-02-12T14:04:37.684Z,10.13
2023-02-12T14:09:45.279Z,11.48
2023-02-12T14:14:50.448Z,9.18
2023-02-12T14:19:51.788Z,9.90
2023-02-12T14:24:58.788Z,6.82
2023-02-12T14:30:09.057Z,6.50
2023-02-12T14:35:33.138Z,7.13
2023-02-12T14:40:34.491Z,8.82
2023-02-12T14:45:38.476Z,7.47
2023-02-12T14:50:52.057Z,8.13
2023-02-12T14:55:54.496Z,10.90
2023-02-12T15:00:57.949Z,11.27
2023-02-12T15:06:19.347Z,9.07
2023-02-12T15:11:41.014Z,9.45
2023-02-12T15:16:54.449Z,7.88
2023-02-12T15:21:56.882Z,11.85
2023-02-12T15:27:00.928Z,10.27
2023-02-12T15:32:06.668Z,9.82
2023-02-12T15:37:09.502Z,12.00
2023-02-12T15:42:24.102Z,13.23
2023-02-12T15:47:27.860Z,15.25
2023-02-12T15:52:37.875Z,13.23
2023-02-12T15:57:39.362Z,11.88
2023-02-12T16:02:40.804Z,11.50
2023-02-12T16:07:42.265Z,11.57
2023-02-12T16:12:44.586Z,14.85
2023-02-12T16:17:47.294Z,11.40
2023-02-12T16:22:50.513Z,14.13
2023-02-12T16:28:00.219Z,18.70
2023-02-12T16:33:02.098Z,20.23
2023-02-12T16:38:42.120Z,20.73
2023-02-12T16:43:47.289Z,19.73
2023-02-12T16:48:51.765Z,19.88
2023-02-12T16:53:57.856Z,25.10
2023-02-12T16:59:00.752Z,28.90
2023-02-12T17:04:06.639Z,27.02
2023-02-12T17:09:09.558Z,48.42
2023-02-12T17:14:16.266Z,40.95
2023-02-12T17:19:17.792Z,40.20
2023-02-12T17:24:25.299Z,32.47
2023-02-12T17:29:27.290Z,29.30
2023-02-12T17:34:32.042Z,26.88
2023-02-12T17:39:39.087Z,27.42
2023-02-12T17:44:41.568Z,33.25
2023-02-12T17:49:42.997Z,35.08
2023-02-12T17:54:45.685Z,32.05
2023-02-12T17:59:47.114Z,28.83
2023-02-12T18:04:48.531Z,30.40
2023-02-12T18:09:50.101Z,32.47
2023-02-12T18:14:55.366Z,29.48
2023-02-12T18:19:56.845Z,29.08
2023-02-12T18:24:58.347Z,31.40
2023-02-12T18:29:59.874Z,31.20
2023-02-12T18:35:01.295Z,32.83
2023-02-12T18:40:03.653Z,31.98
2023-02-12T18:45:05.698Z,29.75
2023-02-12T18:50:07.698Z,32.70
2023-02-12T18:55:09.219Z,30.45
2023-02-12T19:00:11.061Z,30.02
2023-02-12T19:05:12.538Z,34.05
2023-02-12T19:10:13.957Z,38.00
2023-02-12T19:15:17.413Z,35.80
2023-02-12T19:20:19.241Z,41.22
2023-02-12T19:25:20.693Z,27.83
2023-02-12T19:30:22.212Z,41.25
2023-02-12T19:35:23.668Z,31.98
2023-02-12T19:40:25.482Z,32.50
2023-02-12T19:45:26.896Z,37.28
2023-02-12T19:50:28.340Z,33.97
2023-02-12T19:55:29.763Z,36.20
2023-02-12T20:00:31.181Z,27.80
2023-02-12T20:05:32.608Z,26.65
2023-02-12T20:10:34.017Z,28.55
2023-02-12T20:15:39.572Z,27.08
2023-02-12T20:20:41.205Z,30.98
2023-02-12T20:25:44.357Z,30.20
2023-02-12T20:30:46.821Z,34.25
2023-02-12T20:35:55.811Z,31.00
2023-02-12T20:41:03.760Z,29.95
2023-02-12T20:46:13.914Z,29.90
2023-02-12T20:51:18.910Z,30.25
2023-02-12T20:56:23.810Z,36.92
2023-02-12T21:01:34.683Z,34.38
2023-02-12T21:06:39.383Z,34.17
2023-02-12T21:11:42.311Z,27.95
2023-02-12T21:16:44.518Z,31.98
2023-02-12T21:21:46.113Z,31.42
2023-02-12T21:26:48.226Z,32.92
2023-02-12T21:31:50.890Z,32.88
2023-02-12T21:36:54.789Z,30.88
2023-02-12T21:42:00.211Z,32.13
2023-02-12T21:47:01.932Z,36.67
2023-02-12T21:52:06.562Z,41.05
2023-02-12T21:57:08.078Z,33.65
2023-02-12T22:02:09.801Z,32.65
2023-02-12T22:07:11.275Z,31.45
2023-02-12T22:12:12.743Z,34.20
2023-02-12T22:17:14.192Z,31.67
2023-02-12T22:22:15.644Z,26.75
2023-02-12T22:27:17.139Z,27.92
2023-02-12T22:32:19.332Z,28.92
2023-02-12T22:37:21.175Z,25.73
2023-02-12T22:42:22.610Z,29.77
2023-02-12T22:47:24.499Z,30.95
2023-02-12T22:52:26.768Z,26.42
2023-02-12T22:57:28.233Z,28.38
2023-02-12T23:02:29.656Z,32.72
2023-02-12T23:07:31.097Z,37.55
2023-02-12T23:12:32.529Z,37.53
2023-02-12T23:17:34.049Z,38.75
2023-02-12T23:22:35.567Z,37.35
2023-02-12T23:27:36.979Z,32.55
2023-02-12T23:32:38.382Z,30.67
2023-02-12T23:37:39.838Z,27.13
2023-02-12T23:42:41.266Z,26.85
2023-02-12T23:47:42.689Z,21.05
2023-02-12T23:52:44.147Z,22.77
2023-02-12T23:57:47.097Z,23.88
